sensor_id;sensor_type;location;lat;lon;timestamp;temperature;humidity
43183;DHT22;28802;38.578;-0.066;2022-12-29T00:01:37;10.50;99.90
43183;DHT22;28802;38.578;-0.066;2022-12-29T00:04:04;10.60;99.90
43183;DHT22;28802;38.578;-0.066;2022-12-29T00:06:31;10.40;99.90
43183;DHT22;28802;38.578;-0.066;2022-12-29T00:08:57;10.40;99.90
43183;DHT22;28802;38.578;-0.066;2022-12-29T00:11:25;10.40;99.90
43183;DHT22;28802;38.578;-0.066;2022-12-29T00:13:52;10.40;99.90
43183;DHT22;28802;38.578;-0.066;2022-12-29T00:16:37;10.40;99.90
43183;DHT22;28802;38.578;-0.066;2022-12-29T00:19:04;10.50;99.90
43183;DHT22;28802;38.578;-0.066;2022-12-29T00:21:30;10.50;99.90
43183;DHT22;28802;38.578;-0.066;2022-12-29T00:24:20;10.50;99.90
43183;DHT22;28802;38.578;-0.066;2022-12-29T00:27:13;10.40;99.90
43183;DHT22;28802;38.578;-0.066;2022-12-29T00:29:58;10.40;99.90
43183;DHT22;28802;38.578;-0.066;2022-12-29T00:32:42;10.20;99.90
43183;DHT22;28802;38.578;-0.066;2022-12-29T00:35:30;10.20;99.90
43183;DHT22;28802;38.578;-0.066;2022-12-29T00:38:00;10.20;99.90
43183;DHT22;28802;38.578;-0.066;2022-12-29T00:40:45;10.30;99.90
43183;DHT22;28802;38.578;-0.066;2022-12-29T00:43:29;10.40;99.90
43183;DHT22;28802;38.578;-0.066;2022-12-29T00:46:14;10.60;99.90
43183;DHT22;28802;38.578;-0.066;2022-12-29T00:48:40;10.50;99.90
43183;DHT22;28802;38.578;-0.066;2022-12-29T00:51:24;10.50;99.90
43183;DHT22;28802;38.578;-0.066;2022-12-29T00:53:50;10.60;99.90
43183;DHT22;28802;38.578;-0.066;2022-12-29T00:56:16;10.60;99.90
43183;DHT22;28802;38.578;-0.066;2022-12-29T00:58:42;10.70;99.90
43183;DHT22;28802;38.578;-0.066;2022-12-29T01:01:08;10.70;99.90
43183;DHT22;28802;38.578;-0.066;2022-12-29T01:03:36;10.70;99.90
43183;DHT22;28802;38.578;-0.066;2022-12-29T01:06:04;10.80;99.90
43183;DHT22;28802;38.578;-0.066;2022-12-29T01:08:30;10.80;99.90
43183;DHT22;28802;38.578;-0.066;2022-12-29T01:11:00;10.70;99.90
43183;DHT22;28802;38.578;-0.066;2022-12-29T01:13:27;10.70;99.90
43183;DHT22;28802;38.578;-0.066;2022-12-29T01:15:54;10.60;99.90
43183;DHT22;28802;38.578;-0.066;2022-12-29T01:18:20;10.70;99.90
43183;DHT22;28802;38.578;-0.066;2022-12-29T01:20:46;10.70;99.90
43183;DHT22;28802;38.578;-0.066;2022-12-29T01:23:12;10.70;99.90
43183;DHT22;28802;38.578;-0.066;2022-12-29T01:25:47;10.70;99.90
43183;DHT22;28802;38.578;-0.066;2022-12-29T01:28:13;10.70;99.90
43183;DHT22;28802;38.578;-0.066;2022-12-29T01:30:39;10.70;99.90
43183;DHT22;28802;38.578;-0.066;2022-12-29T01:33:05;10.70;99.90
43183;DHT22;28802;38.578;-0.066;2022-12-29T01:35:31;10.60;99.90
43183;DHT22;28802;38.578;-0.066;2022-12-29T01:37:57;10.40;99.90
43183;DHT22;28802;38.578;-0.066;2022-12-29T01:40:24;10.40;99.90
43183;DHT22;28802;38.578;-0.066;2022-12-29T01:42:50;10.30;99.90
43183;DHT22;28802;38.578;-0.066;2022-12-29T01:45:17;10.40;99.90
43183;DHT22;28802;38.578;-0.066;2022-12-29T01:47:52;10.50;99.90
43183;DHT22;28802;38.578;-0.066;2022-12-29T01:50:32;10.60;99.90
43183;DHT22;28802;38.578;-0.066;2022-12-29T01:55:39;10.70;99.90
43183;DHT22;28802;38.578;-0.066;2022-12-29T01:58:08;10.60;99.90
43183;DHT22;28802;38.578;-0.066;2022-12-29T02:00:37;10.60;99.90
43183;DHT22;28802;38.578;-0.066;2022-12-29T02:03:07;10.50;99.90
43183;DHT22;28802;38.578;-0.066;2022-12-29T02:08:15;10.30;99.90
43183;DHT22;28802;38.578;-0.066;2022-12-29T02:10:47;10.00;99.90
43183;DHT22;28802;38.578;-0.066;2022-12-29T02:13:16;9.90;99.90
43183;DHT22;28802;38.578;-0.066;2022-12-29T02:21:36;10.00;99.90
43183;DHT22;28802;38.578;-0.066;2022-12-29T02:40:52;9.00;99.90
43183;DHT22;28802;38.578;-0.066;2022-12-29T02:46:05;9.00;99.90
43183;DHT22;28802;38.578;-0.066;2022-12-29T02:48:46;9.00;99.90
43183;DHT22;28802;38.578;-0.066;2022-12-29T02:51:29;9.10;99.90
43183;DHT22;28802;38.578;-0.066;2022-12-29T02:53:58;9.10;99.90
43183;DHT22;28802;38.578;-0.066;2022-12-29T02:56:43;8.90;99.90
43183;DHT22;28802;38.578;-0.066;2022-12-29T03:08:17;8.90;99.90
43183;DHT22;28802;38.578;-0.066;2022-12-29T03:10:54;8.80;99.90
43183;DHT22;28802;38.578;-0.066;2022-12-29T03:13:42;8.80;99.90
43183;DHT22;28802;38.578;-0.066;2022-12-29T03:19:21;8.70;99.90
43183;DHT22;28802;38.578;-0.066;2022-12-29T03:24:47;8.70;99.90
43183;DHT22;28802;38.578;-0.066;2022-12-29T03:27:21;8.60;99.90
43183;DHT22;28802;38.578;-0.066;2022-12-29T03:29:53;8.60;99.90
43183;DHT22;28802;38.578;-0.066;2022-12-29T03:32:27;8.40;99.90
43183;DHT22;28802;38.578;-0.066;2022-12-29T03:34:55;8.40;99.90
43183;DHT22;28802;38.578;-0.066;2022-12-29T03:37:25;8.20;99.90
43183;DHT22;28802;38.578;-0.066;2022-12-29T03:39:52;8.10;99.90
43183;DHT22;28802;38.578;-0.066;2022-12-29T03:42:25;8.10;99.90
43183;DHT22;28802;38.578;-0.066;2022-12-29T03:44:54;8.20;99.90
43183;DHT22;28802;38.578;-0.066;2022-12-29T03:47:22;8.20;99.90
43183;DHT22;28802;38.578;-0.066;2022-12-29T03:49:50;8.20;99.90
43183;DHT22;28802;38.578;-0.066;2022-12-29T03:52:16;8.20;99.90
43183;DHT22;28802;38.578;-0.066;2022-12-29T03:54:44;8.10;99.90
43183;DHT22;28802;38.578;-0.066;2022-12-29T03:57:11;8.00;99.90
43183;DHT22;28802;38.578;-0.066;2022-12-29T03:59:57;8.00;99.90
43183;DHT22;28802;38.578;-0.066;2022-12-29T04:02:23;7.80;99.90
43183;DHT22;28802;38.578;-0.066;2022-12-29T04:04:49;7.80;99.90
43183;DHT22;28802;38.578;-0.066;2022-12-29T04:07:15;7.90;99.90
43183;DHT22;28802;38.578;-0.066;2022-12-29T04:09:42;7.70;99.90
43183;DHT22;28802;38.578;-0.066;2022-12-29T04:12:11;7.70;99.90
43183;DHT22;28802;38.578;-0.066;2022-12-29T04:14:37;7.70;99.90
43183;DHT22;28802;38.578;-0.066;2022-12-29T04:17:03;7.60;99.90
43183;DHT22;28802;38.578;-0.066;2022-12-29T04:19:29;7.60;99.90
43183;DHT22;28802;38.578;-0.066;2022-12-29T04:21:55;7.60;99.90
43183;DHT22;28802;38.578;-0.066;2022-12-29T04:24:21;7.50;99.90
43183;DHT22;28802;38.578;-0.066;2022-12-29T04:26:49;7.70;99.90
43183;DHT22;28802;38.578;-0.066;2022-12-29T04:29:35;7.90;99.90
43183;DHT22;28802;38.578;-0.066;2022-12-29T04:32:04;8.00;99.90
43183;DHT22;28802;38.578;-0.066;2022-12-29T04:34:32;8.00;99.90
43183;DHT22;28802;38.578;-0.066;2022-12-29T04:36:58;8.00;99.90
43183;DHT22;28802;38.578;-0.066;2022-12-29T04:39:24;8.00;99.90
43183;DHT22;28802;38.578;-0.066;2022-12-29T04:41:50;7.80;99.90
43183;DHT22;28802;38.578;-0.066;2022-12-29T04:44:19;7.60;99.90
43183;DHT22;28802;38.578;-0.066;2022-12-29T04:47:08;7.50;99.90
43183;DHT22;28802;38.578;-0.066;2022-12-29T04:49:50;7.70;99.90
43183;DHT22;28802;38.578;-0.066;2022-12-29T04:52:42;7.50;99.90
43183;DHT22;28802;38.578;-0.066;2022-12-29T04:55:10;7.30;99.90
43183;DHT22;28802;38.578;-0.066;2022-12-29T04:57:36;7.40;99.90
43183;DHT22;28802;38.578;-0.066;2022-12-29T05:00:03;7.40;99.90
43183;DHT22;28802;38.578;-0.066;2022-12-29T05:02:30;7.60;99.90
43183;DHT22;28802;38.578;-0.066;2022-12-29T05:04:56;7.80;99.90
43183;DHT22;28802;38.578;-0.066;2022-12-29T05:07:22;7.90;99.90
43183;DHT22;28802;38.578;-0.066;2022-12-29T05:09:48;7.90;99.90
43183;DHT22;28802;38.578;-0.066;2022-12-29T05:12:14;7.90;99.90
43183;DHT22;28802;38.578;-0.066;2022-12-29T05:14:51;7.80;99.90
43183;DHT22;28802;38.578;-0.066;2022-12-29T05:17:18;7.70;99.90
43183;DHT22;28802;38.578;-0.066;2022-12-29T05:19:44;7.70;99.90
43183;DHT22;28802;38.578;-0.066;2022-12-29T05:22:11;7.70;99.90
43183;DHT22;28802;38.578;-0.066;2022-12-29T05:24:38;7.70;99.90
43183;DHT22;28802;38.578;-0.066;2022-12-29T05:27:04;7.80;99.90
43183;DHT22;28802;38.578;-0.066;2022-12-29T05:29:37;7.60;99.90
43183;DHT22;28802;38.578;-0.066;2022-12-29T05:32:03;7.30;99.90
43183;DHT22;28802;38.578;-0.066;2022-12-29T05:34:29;7.40;99.90
43183;DHT22;28802;38.578;-0.066;2022-12-29T05:36:55;7.50;99.90
43183;DHT22;28802;38.578;-0.066;2022-12-29T05:39:23;7.40;99.90
43183;DHT22;28802;38.578;-0.066;2022-12-29T05:41:54;7.30;99.90
43183;DHT22;28802;38.578;-0.066;2022-12-29T05:44:27;7.20;99.90
43183;DHT22;28802;38.578;-0.066;2022-12-29T05:47:19;7.30;99.90
43183;DHT22;28802;38.578;-0.066;2022-12-29T05:50:01;7.30;99.90
43183;DHT22;28802;38.578;-0.066;2022-12-29T05:52:47;7.10;99.90
43183;DHT22;28802;38.578;-0.066;2022-12-29T05:55:13;7.00;99.90
43183;DHT22;28802;38.578;-0.066;2022-12-29T05:57:41;7.10;99.90
43183;DHT22;28802;38.578;-0.066;2022-12-29T06:00:14;7.20;99.90
43183;DHT22;28802;38.578;-0.066;2022-12-29T06:02:45;7.20;99.90
43183;DHT22;28802;38.578;-0.066;2022-12-29T06:05:12;7.40;99.90
43183;DHT22;28802;38.578;-0.066;2022-12-29T06:07:39;7.40;99.90
43183;DHT22;28802;38.578;-0.066;2022-12-29T06:10:06;7.30;99.90
43183;DHT22;28802;38.578;-0.066;2022-12-29T06:12:38;7.40;99.90
43183;DHT22;28802;38.578;-0.066;2022-12-29T06:15:05;7.40;99.90
43183;DHT22;28802;38.578;-0.066;2022-12-29T06:17:31;7.40;99.90
43183;DHT22;28802;38.578;-0.066;2022-12-29T06:19:58;7.50;99.90
43183;DHT22;28802;38.578;-0.066;2022-12-29T06:22:24;7.50;99.90
43183;DHT22;28802;38.578;-0.066;2022-12-29T06:24:50;7.40;99.90
43183;DHT22;28802;38.578;-0.066;2022-12-29T06:27:16;7.40;99.90
43183;DHT22;28802;38.578;-0.066;2022-12-29T06:29:42;7.20;99.90
43183;DHT22;28802;38.578;-0.066;2022-12-29T06:32:09;7.20;99.90
43183;DHT22;28802;38.578;-0.066;2022-12-29T06:34:36;7.20;99.90
43183;DHT22;28802;38.578;-0.066;2022-12-29T06:37:03;7.50;99.90
43183;DHT22;28802;38.578;-0.066;2022-12-29T06:39:29;7.30;99.90
43183;DHT22;28802;38.578;-0.066;2022-12-29T06:42:03;7.30;99.90
43183;DHT22;28802;38.578;-0.066;2022-12-29T06:44:55;7.30;99.90
43183;DHT22;28802;38.578;-0.066;2022-12-29T06:47:24;7.10;99.90
43183;DHT22;28802;38.578;-0.066;2022-12-29T06:49:50;7.40;99.90
43183;DHT22;28802;38.578;-0.066;2022-12-29T06:52:16;7.40;99.90
43183;DHT22;28802;38.578;-0.066;2022-12-29T06:54:41;7.10;99.90
43183;DHT22;28802;38.578;-0.066;2022-12-29T06:57:08;7.20;99.90
43183;DHT22;28802;38.578;-0.066;2022-12-29T06:59:33;7.20;99.90
43183;DHT22;28802;38.578;-0.066;2022-12-29T07:01:59;7.30;99.90
43183;DHT22;28802;38.578;-0.066;2022-12-29T07:04:28;7.20;99.90
43183;DHT22;28802;38.578;-0.066;2022-12-29T07:06:54;7.20;99.90
43183;DHT22;28802;38.578;-0.066;2022-12-29T07:09:20;7.40;99.90
43183;DHT22;28802;38.578;-0.066;2022-12-29T07:11:45;7.50;99.90
43183;DHT22;28802;38.578;-0.066;2022-12-29T07:14:12;7.50;99.90
43183;DHT22;28802;38.578;-0.066;2022-12-29T07:16:38;7.40;99.90
43183;DHT22;28802;38.578;-0.066;2022-12-29T07:19:04;7.60;99.90
43183;DHT22;28802;38.578;-0.066;2022-12-29T07:21:30;7.60;99.90
43183;DHT22;28802;38.578;-0.066;2022-12-29T07:23:56;7.50;99.90
43183;DHT22;28802;38.578;-0.066;2022-12-29T07:26:23;7.40;99.90
43183;DHT22;28802;38.578;-0.066;2022-12-29T07:28:48;7.40;99.90
43183;DHT22;28802;38.578;-0.066;2022-12-29T07:31:16;7.50;99.90
43183;DHT22;28802;38.578;-0.066;2022-12-29T07:33:43;7.70;99.90
43183;DHT22;28802;38.578;-0.066;2022-12-29T07:36:10;8.00;99.90
43183;DHT22;28802;38.578;-0.066;2022-12-29T07:38:36;8.20;99.90
43183;DHT22;28802;38.578;-0.066;2022-12-29T07:41:02;8.50;99.90
43183;DHT22;28802;38.578;-0.066;2022-12-29T07:43:28;8.30;99.90
43183;DHT22;28802;38.578;-0.066;2022-12-29T07:46:12;8.50;99.90
43183;DHT22;28802;38.578;-0.066;2022-12-29T07:48:38;9.10;99.90
43183;DHT22;28802;38.578;-0.066;2022-12-29T07:51:05;9.80;99.90
43183;DHT22;28802;38.578;-0.066;2022-12-29T07:53:30;10.50;99.90
43183;DHT22;28802;38.578;-0.066;2022-12-29T07:55:56;10.80;99.90
43183;DHT22;28802;38.578;-0.066;2022-12-29T07:58:23;11.10;99.90
43183;DHT22;28802;38.578;-0.066;2022-12-29T08:00:53;10.90;99.90
43183;DHT22;28802;38.578;-0.066;2022-12-29T08:03:19;11.20;99.90
43183;DHT22;28802;38.578;-0.066;2022-12-29T08:05:45;11.60;99.90
43183;DHT22;28802;38.578;-0.066;2022-12-29T08:08:11;12.00;99.90
43183;DHT22;28802;38.578;-0.066;2022-12-29T08:10:37;12.70;99.90
43183;DHT22;28802;38.578;-0.066;2022-12-29T08:13:03;13.20;99.90
43183;DHT22;28802;38.578;-0.066;2022-12-29T08:15:29;13.70;99.90
43183;DHT22;28802;38.578;-0.066;2022-12-29T08:17:55;13.90;99.90
43183;DHT22;28802;38.578;-0.066;2022-12-29T08:20:21;13.30;99.90
43183;DHT22;28802;38.578;-0.066;2022-12-29T08:22:54;13.30;99.90
43183;DHT22;28802;38.578;-0.066;2022-12-29T08:25:20;13.60;99.90
43183;DHT22;28802;38.578;-0.066;2022-12-29T08:27:46;14.00;99.90
43183;DHT22;28802;38.578;-0.066;2022-12-29T08:30:13;14.70;99.90
43183;DHT22;28802;38.578;-0.066;2022-12-29T08:32:45;15.30;99.90
43183;DHT22;28802;38.578;-0.066;2022-12-29T08:35:11;15.90;99.90
43183;DHT22;28802;38.578;-0.066;2022-12-29T08:37:38;16.40;99.90
43183;DHT22;28802;38.578;-0.066;2022-12-29T08:40:05;17.00;99.90
43183;DHT22;28802;38.578;-0.066;2022-12-29T08:42:31;17.20;99.90
43183;DHT22;28802;38.578;-0.066;2022-12-29T08:44:58;16.90;99.90
43183;DHT22;28802;38.578;-0.066;2022-12-29T08:47:24;16.70;99.90
43183;DHT22;28802;38.578;-0.066;2022-12-29T08:49:51;17.30;99.90
43183;DHT22;28802;38.578;-0.066;2022-12-29T08:52:17;17.80;99.90
43183;DHT22;28802;38.578;-0.066;2022-12-29T08:54:43;18.40;99.90
43183;DHT22;28802;38.578;-0.066;2022-12-29T08:57:10;18.80;99.90
43183;DHT22;28802;38.578;-0.066;2022-12-29T08:59:42;19.00;99.90
43183;DHT22;28802;38.578;-0.066;2022-12-29T09:02:11;18.70;99.90
43183;DHT22;28802;38.578;-0.066;2022-12-29T09:04:37;18.80;99.90
43183;DHT22;28802;38.578;-0.066;2022-12-29T09:07:03;18.80;99.90
43183;DHT22;28802;38.578;-0.066;2022-12-29T09:09:32;18.80;99.90
43183;DHT22;28802;38.578;-0.066;2022-12-29T09:11:58;18.20;99.90
43183;DHT22;28802;38.578;-0.066;2022-12-29T09:14:25;17.80;99.90
43183;DHT22;28802;38.578;-0.066;2022-12-29T09:16:52;17.70;99.90
43183;DHT22;28802;38.578;-0.066;2022-12-29T09:19:37;17.50;99.90
43183;DHT22;28802;38.578;-0.066;2022-12-29T09:22:03;16.90;99.90
43183;DHT22;28802;38.578;-0.066;2022-12-29T09:24:29;16.50;99.90
43183;DHT22;28802;38.578;-0.066;2022-12-29T09:26:55;16.40;99.90
43183;DHT22;28802;38.578;-0.066;2022-12-29T09:29:21;16.70;99.90
43183;DHT22;28802;38.578;-0.066;2022-12-29T09:31:48;17.10;99.90
43183;DHT22;28802;38.578;-0.066;2022-12-29T09:34:14;17.50;99.90
43183;DHT22;28802;38.578;-0.066;2022-12-29T09:36:41;18.00;99.90
43183;DHT22;28802;38.578;-0.066;2022-12-29T09:39:08;18.70;99.90
43183;DHT22;28802;38.578;-0.066;2022-12-29T09:41:43;18.70;99.90
43183;DHT22;28802;38.578;-0.066;2022-12-29T09:44:45;18.60;99.90
43183;DHT22;28802;38.578;-0.066;2022-12-29T09:47:17;19.60;99.90
43183;DHT22;28802;38.578;-0.066;2022-12-29T09:49:54;20.30;99.90
43183;DHT22;28802;38.578;-0.066;2022-12-29T09:52:24;20.20;99.90
43183;DHT22;28802;38.578;-0.066;2022-12-29T09:55:05;20.50;99.90
43183;DHT22;28802;38.578;-0.066;2022-12-29T09:57:40;20.80;99.90
43183;DHT22;28802;38.578;-0.066;2022-12-29T10:00:12;21.20;99.90
43183;DHT22;28802;38.578;-0.066;2022-12-29T10:02:59;21.40;99.90
43183;DHT22;28802;38.578;-0.066;2022-12-29T10:05:50;21.90;99.90
43183;DHT22;28802;38.578;-0.066;2022-12-29T10:25:41;21.80;99.90
43183;DHT22;28802;38.578;-0.066;2022-12-29T10:28:22;22.60;99.90
43183;DHT22;28802;38.578;-0.066;2022-12-29T10:30:53;22.70;99.90
43183;DHT22;28802;38.578;-0.066;2022-12-29T10:33:23;22.20;99.90
43183;DHT22;28802;38.578;-0.066;2022-12-29T10:35:51;22.30;99.90
43183;DHT22;28802;38.578;-0.066;2022-12-29T10:38:20;22.80;99.90
43183;DHT22;28802;38.578;-0.066;2022-12-29T10:41:02;22.90;99.90
43183;DHT22;28802;38.578;-0.066;2022-12-29T10:46:16;22.40;99.90
43183;DHT22;28802;38.578;-0.066;2022-12-29T10:48:43;22.30;99.90
43183;DHT22;28802;38.578;-0.066;2022-12-29T10:51:23;21.50;99.90
43183;DHT22;28802;38.578;-0.066;2022-12-29T10:56:42;20.80;99.90
43183;DHT22;28802;38.578;-0.066;2022-12-29T10:59:26;21.20;99.90
43183;DHT22;28802;38.578;-0.066;2022-12-29T11:05:05;20.60;99.90
43183;DHT22;28802;38.578;-0.066;2022-12-29T11:07:34;20.10;99.90
43183;DHT22;28802;38.578;-0.066;2022-12-29T11:10:40;20.00;99.90
43183;DHT22;28802;38.578;-0.066;2022-12-29T11:15:47;21.20;99.90
43183;DHT22;28802;38.578;-0.066;2022-12-29T11:18:35;20.90;99.90
43183;DHT22;28802;38.578;-0.066;2022-12-29T11:21:05;20.30;99.90
43183;DHT22;28802;38.578;-0.066;2022-12-29T11:23:33;20.20;99.90
43183;DHT22;28802;38.578;-0.066;2022-12-29T11:26:22;20.80;99.90
43183;DHT22;28802;38.578;-0.066;2022-12-29T11:31:51;22.40;99.90
43183;DHT22;28802;38.578;-0.066;2022-12-29T11:34:37;22.10;99.90
43183;DHT22;28802;38.578;-0.066;2022-12-29T11:37:06;21.30;99.90
43183;DHT22;28802;38.578;-0.066;2022-12-29T11:39:40;21.60;99.90
43183;DHT22;28802;38.578;-0.066;2022-12-29T11:42:14;21.50;99.90
43183;DHT22;28802;38.578;-0.066;2022-12-29T11:44:44;21.20;99.90
43183;DHT22;28802;38.578;-0.066;2022-12-29T11:47:23;22.00;99.90
43183;DHT22;28802;38.578;-0.066;2022-12-29T11:49:55;22.00;99.90
43183;DHT22;28802;38.578;-0.066;2022-12-29T11:52:23;21.80;99.90
43183;DHT22;28802;38.578;-0.066;2022-12-29T11:54:50;21.00;99.90
43183;DHT22;28802;38.578;-0.066;2022-12-29T11:57:18;20.70;99.90
43183;DHT22;28802;38.578;-0.066;2022-12-29T11:59:55;21.10;99.90
43183;DHT22;28802;38.578;-0.066;2022-12-29T12:02:42;21.80;99.90
43183;DHT22;28802;38.578;-0.066;2022-12-29T12:10:43;20.00;99.90
43183;DHT22;28802;38.578;-0.066;2022-12-29T12:13:33;20.00;99.90
43183;DHT22;28802;38.578;-0.066;2022-12-29T12:16:24;19.80;99.90
43183;DHT22;28802;38.578;-0.066;2022-12-29T12:21:47;19.40;99.90
43183;DHT22;28802;38.578;-0.066;2022-12-29T12:24:51;19.50;99.90
43183;DHT22;28802;38.578;-0.066;2022-12-29T12:27:29;19.80;99.90
43183;DHT22;28802;38.578;-0.066;2022-12-29T12:30:03;20.60;99.90
43183;DHT22;28802;38.578;-0.066;2022-12-29T12:33:44;21.10;99.90
43183;DHT22;28802;38.578;-0.066;2022-12-29T12:37:06;21.10;99.90
43183;DHT22;28802;38.578;-0.066;2022-12-29T12:47:10;20.20;99.90
43183;DHT22;28802;38.578;-0.066;2022-12-29T13:06:54;21.30;99.90
43183;DHT22;28802;38.578;-0.066;2022-12-29T13:12:36;20.60;99.90
43183;DHT22;28802;38.578;-0.066;2022-12-29T13:15:12;20.60;99.90
43183;DHT22;28802;38.578;-0.066;2022-12-29T13:18:05;20.60;99.90
43183;DHT22;28802;38.578;-0.066;2022-12-29T13:28:50;20.70;99.90
43183;DHT22;28802;38.578;-0.066;2022-12-29T13:31:28;20.70;99.90
43183;DHT22;28802;38.578;-0.066;2022-12-29T13:34:26;20.60;99.90
43183;DHT22;28802;38.578;-0.066;2022-12-29T13:36:59;20.60;99.90
43183;DHT22;28802;38.578;-0.066;2022-12-29T13:39:32;20.40;99.90
43183;DHT22;28802;38.578;-0.066;2022-12-29T13:41:59;20.10;99.90
43183;DHT22;28802;38.578;-0.066;2022-12-29T13:47:21;19.60;99.90
43183;DHT22;28802;38.578;-0.066;2022-12-29T13:49:48;19.40;99.90
43183;DHT22;28802;38.578;-0.066;2022-12-29T13:55:27;19.40;99.90
43183;DHT22;28802;38.578;-0.066;2022-12-29T13:58:13;19.30;99.90
43183;DHT22;28802;38.578;-0.066;2022-12-29T14:06:21;19.40;99.90
43183;DHT22;28802;38.578;-0.066;2022-12-29T14:08:49;19.30;99.90
43183;DHT22;28802;38.578;-0.066;2022-12-29T14:11:18;19.10;99.90
43183;DHT22;28802;38.578;-0.066;2022-12-29T14:13:47;19.00;99.90
43183;DHT22;28802;38.578;-0.066;2022-12-29T14:16:42;18.90;99.90
43183;DHT22;28802;38.578;-0.066;2022-12-29T14:19:16;18.90;99.90
43183;DHT22;28802;38.578;-0.066;2022-12-29T14:22:00;18.80;99.90
43183;DHT22;28802;38.578;-0.066;2022-12-29T14:37:34;18.90;99.90
43183;DHT22;28802;38.578;-0.066;2022-12-29T14:40:17;18.80;99.90
43183;DHT22;28802;38.578;-0.066;2022-12-29T14:42:47;18.80;99.90
43183;DHT22;28802;38.578;-0.066;2022-12-29T14:47:41;18.80;99.90
43183;DHT22;28802;38.578;-0.066;2022-12-29T14:52:53;18.90;99.90
43183;DHT22;28802;38.578;-0.066;2022-12-29T14:58:22;18.80;99.90
43183;DHT22;28802;38.578;-0.066;2022-12-29T15:00:51;18.70;99.90
43183;DHT22;28802;38.578;-0.066;2022-12-29T15:03:24;18.60;99.90
43183;DHT22;28802;38.578;-0.066;2022-12-29T15:06:19;18.50;99.90
43183;DHT22;28802;38.578;-0.066;2022-12-29T15:09:00;18.60;99.90
43183;DHT22;28802;38.578;-0.066;2022-12-29T15:14:32;18.20;99.90
43183;DHT22;28802;38.578;-0.066;2022-12-29T15:16:59;18.10;99.90
43183;DHT22;28802;38.578;-0.066;2022-12-29T15:19:26;18.00;99.90
43183;DHT22;28802;38.578;-0.066;2022-12-29T15:21:53;17.80;99.90
43183;DHT22;28802;38.578;-0.066;2022-12-29T15:24:20;17.70;99.90
43183;DHT22;28802;38.578;-0.066;2022-12-29T15:26:49;17.60;99.90
43183;DHT22;28802;38.578;-0.066;2022-12-29T15:29:39;17.70;99.90
43183;DHT22;28802;38.578;-0.066;2022-12-29T15:34:41;17.80;99.90
43183;DHT22;28802;38.578;-0.066;2022-12-29T15:37:08;17.70;99.90
43183;DHT22;28802;38.578;-0.066;2022-12-29T15:39:34;17.70;99.90
43183;DHT22;28802;38.578;-0.066;2022-12-29T15:42:25;17.70;99.90
43183;DHT22;28802;38.578;-0.066;2022-12-29T15:44:53;17.50;99.90
43183;DHT22;28802;38.578;-0.066;2022-12-29T15:47:21;17.40;99.90
43183;DHT22;28802;38.578;-0.066;2022-12-29T15:50:22;17.40;99.90
43183;DHT22;28802;38.578;-0.066;2022-12-29T15:52:49;17.40;99.90
43183;DHT22;28802;38.578;-0.066;2022-12-29T15:55:36;17.40;99.90
43183;DHT22;28802;38.578;-0.066;2022-12-29T15:58:05;17.30;99.90
43183;DHT22;28802;38.578;-0.066;2022-12-29T16:00:34;17.30;99.90
43183;DHT22;28802;38.578;-0.066;2022-12-29T16:03:04;17.20;99.90
43183;DHT22;28802;38.578;-0.066;2022-12-29T16:05:38;17.20;99.90
43183;DHT22;28802;38.578;-0.066;2022-12-29T16:08:29;17.20;99.90
43183;DHT22;28802;38.578;-0.066;2022-12-29T16:10:59;17.20;99.90
43183;DHT22;28802;38.578;-0.066;2022-12-29T16:13:38;17.10;99.90
43183;DHT22;28802;38.578;-0.066;2022-12-29T16:16:19;17.00;99.90
43183;DHT22;28802;38.578;-0.066;2022-12-29T16:18:45;17.00;99.90
43183;DHT22;28802;38.578;-0.066;2022-12-29T16:21:33;17.10;99.90
43183;DHT22;28802;38.578;-0.066;2022-12-29T16:24:06;17.10;99.90
43183;DHT22;28802;38.578;-0.066;2022-12-29T16:26:33;17.10;99.90
43183;DHT22;28802;38.578;-0.066;2022-12-29T16:29:05;17.10;99.90
43183;DHT22;28802;38.578;-0.066;2022-12-29T16:31:36;17.00;99.90
43183;DHT22;28802;38.578;-0.066;2022-12-29T16:34:33;17.00;99.90
43183;DHT22;28802;38.578;-0.066;2022-12-29T16:37:00;16.90;99.90
43183;DHT22;28802;38.578;-0.066;2022-12-29T16:39:36;16.80;99.90
43183;DHT22;28802;38.578;-0.066;2022-12-29T16:48:21;16.60;99.90
43183;DHT22;28802;38.578;-0.066;2022-12-29T16:51:19;16.60;99.90
43183;DHT22;28802;38.578;-0.066;2022-12-29T16:53:54;16.40;99.90
43183;DHT22;28802;38.578;-0.066;2022-12-29T16:56:23;16.30;99.90
43183;DHT22;28802;38.578;-0.066;2022-12-29T17:01:45;16.10;99.90
43183;DHT22;28802;38.578;-0.066;2022-12-29T17:04:12;15.90;99.90
43183;DHT22;28802;38.578;-0.066;2022-12-29T17:06:39;15.90;99.90
43183;DHT22;28802;38.578;-0.066;2022-12-29T17:09:25;15.80;99.90
43183;DHT22;28802;38.578;-0.066;2022-12-29T17:11:56;15.80;99.90
43183;DHT22;28802;38.578;-0.066;2022-12-29T17:17:09;16.00;99.90
43183;DHT22;28802;38.578;-0.066;2022-12-29T17:19:37;16.00;99.90
43183;DHT22;28802;38.578;-0.066;2022-12-29T17:22:16;15.90;99.90
43183;DHT22;28802;38.578;-0.066;2022-12-29T17:24:52;16.00;99.90
43183;DHT22;28802;38.578;-0.066;2022-12-29T17:27:36;16.10;99.90
43183;DHT22;28802;38.578;-0.066;2022-12-29T17:30:14;16.10;99.90
43183;DHT22;28802;38.578;-0.066;2022-12-29T17:32:42;16.10;99.90
43183;DHT22;28802;38.578;-0.066;2022-12-29T17:35:16;16.10;99.90
43183;DHT22;28802;38.578;-0.066;2022-12-29T17:37:43;16.00;99.90
43183;DHT22;28802;38.578;-0.066;2022-12-29T17:40:26;15.90;99.90
43183;DHT22;28802;38.578;-0.066;2022-12-29T17:42:55;15.90;99.90
43183;DHT22;28802;38.578;-0.066;2022-12-29T17:45:27;15.70;99.90
43183;DHT22;28802;38.578;-0.066;2022-12-29T17:47:53;15.80;99.90
43183;DHT22;28802;38.578;-0.066;2022-12-29T17:50:24;15.80;99.90
43183;DHT22;28802;38.578;-0.066;2022-12-29T17:53:16;15.70;99.90
43183;DHT22;28802;38.578;-0.066;2022-12-29T17:55:44;15.40;99.90
43183;DHT22;28802;38.578;-0.066;2022-12-29T17:58:16;15.50;99.90
43183;DHT22;28802;38.578;-0.066;2022-12-29T18:00:43;15.40;99.90
43183;DHT22;28802;38.578;-0.066;2022-12-29T18:03:14;15.30;99.90
43183;DHT22;28802;38.578;-0.066;2022-12-29T18:05:41;15.30;99.90
43183;DHT22;28802;38.578;-0.066;2022-12-29T18:08:14;15.30;99.90
43183;DHT22;28802;38.578;-0.066;2022-12-29T18:10:40;15.30;99.90
43183;DHT22;28802;38.578;-0.066;2022-12-29T18:13:18;15.30;99.90
43183;DHT22;28802;38.578;-0.066;2022-12-29T18:15:56;15.30;99.90
43183;DHT22;28802;38.578;-0.066;2022-12-29T18:18:24;15.30;99.90
43183;DHT22;28802;38.578;-0.066;2022-12-29T18:20:52;15.30;99.90
43183;DHT22;28802;38.578;-0.066;2022-12-29T18:23:21;15.40;99.90
43183;DHT22;28802;38.578;-0.066;2022-12-29T18:26:26;15.30;99.90
43183;DHT22;28802;38.578;-0.066;2022-12-29T18:28:47;15.20;99.90
43183;DHT22;28802;38.578;-0.066;2022-12-29T18:31:24;15.10;99.90
43183;DHT22;28802;38.578;-0.066;2022-12-29T18:33:52;15.10;99.90
43183;DHT22;28802;38.578;-0.066;2022-12-29T18:36:19;15.10;99.90
43183;DHT22;28802;38.578;-0.066;2022-12-29T18:38:46;15.10;99.90
43183;DHT22;28802;38.578;-0.066;2022-12-29T18:41:18;15.20;99.90
43183;DHT22;28802;38.578;-0.066;2022-12-29T18:43:45;15.30;99.90